sensor_id;sensor_type;location;lat;lon;timestamp;pressure;altitude;pressure_sealevel;temperature;humidity
77017;BME280;65949;53.132;17.930;2023-12-29T00:02:07;100511.91;;;5.09;87.99
77017;BME280;65949;53.132;17.930;2023-12-29T00:04:34;100513.80;;;5.11;87.96
77017;BME280;65949;53.132;17.930;2023-12-29T00:07:01;100513.70;;;5.12;87.99
77017;BME280;65949;53.132;17.930;2023-12-29T00:09:29;100508.30;;;5.12;87.77
77017;BME280;65949;53.132;17.930;2023-12-29T00:11:55;100507.52;;;5.11;87.80
77017;BME280;65949;53.132;17.930;2023-12-29T00:14:22;100501.12;;;5.14;87.87
77017;BME280;65949;53.132;17.930;2023-12-29T00:16:48;100498.06;;;5.17;87.83
77017;BME280;65949;53.132;17.930;2023-12-29T00:19:15;100487.79;;;5.18;87.65
77017;BME280;65949;53.132;17.930;2023-12-29T00:21:42;100483.30;;;5.18;87.59
77017;BME280;65949;53.132;17.930;2023-12-29T00:24:08;100477.55;;;5.17;87.56
77017;BME280;65949;53.132;17.930;2023-12-29T00:26:35;100476.45;;;5.15;87.68
77017;BME280;65949;53.132;17.930;2023-12-29T00:29:02;100473.29;;;5.15;87.70
77017;BME280;65949;53.132;17.930;2023-12-29T00:31:29;100471.66;;;5.15;87.72
77017;BME280;65949;53.132;17.930;2023-12-29T00:33:57;100475.12;;;5.15;87.53
77017;BME280;65949;53.132;17.930;2023-12-29T00:36:24;100469.85;;;5.16;87.71
77017;BME280;65949;53.132;17.930;2023-12-29T00:38:51;100468.54;;;5.16;87.51
77017;BME280;65949;53.132;17.930;2023-12-29T00:41:18;100466.71;;;5.16;87.48
77017;BME280;65949;53.132;17.930;2023-12-29T00:43:44;100466.66;;;5.14;87.44
77017;BME280;65949;53.132;17.930;2023-12-29T00:46:14;100463.60;;;5.11;87.59
77017;BME280;65949;53.132;17.930;2023-12-29T00:48:42;100463.39;;;5.09;87.50
77017;BME280;65949;53.132;17.930;2023-12-29T00:51:09;100467.52;;;5.07;87.45
77017;BME280;65949;53.132;17.930;2023-12-29T00:53:36;100464.79;;;5.03;87.50
77017;BME280;65949;53.132;17.930;2023-12-29T00:56:09;100465.30;;;4.98;87.57
77017;BME280;65949;53.132;17.930;2023-12-29T00:58:37;100462.46;;;4.93;87.75
77017;BME280;65949;53.132;17.930;2023-12-29T01:01:06;100456.50;;;4.88;87.73
77017;BME280;65949;53.132;17.930;2023-12-29T01:03:34;100454.10;;;4.83;87.87
77017;BME280;65949;53.132;17.930;2023-12-29T01:06:01;100458.41;;;4.78;87.90
77017;BME280;65949;53.132;17.930;2023-12-29T01:08:28;100457.96;;;4.75;88.01
77017;BME280;65949;53.132;17.930;2023-12-29T01:10:54;100456.13;;;4.72;88.07
77017;BME280;65949;53.132;17.930;2023-12-29T01:13:21;100453.46;;;4.69;88.25
77017;BME280;65949;53.132;17.930;2023-12-29T01:15:47;100450.17;;;4.65;88.32
77017;BME280;65949;53.132;17.930;2023-12-29T01:18:14;100450.75;;;4.64;88.38
77017;BME280;65949;53.132;17.930;2023-12-29T01:20:40;100451.73;;;4.62;88.39
77017;BME280;65949;53.132;17.930;2023-12-29T01:23:07;100447.73;;;4.59;88.58
77017;BME280;65949;53.132;17.930;2023-12-29T01:25:34;100448.59;;;4.58;88.51
77017;BME280;65949;53.132;17.930;2023-12-29T01:28:00;100446.21;;;4.56;88.74
77017;BME280;65949;53.132;17.930;2023-12-29T01:30:27;100445.23;;;4.53;88.74
77017;BME280;65949;53.132;17.930;2023-12-29T01:32:53;100446.78;;;4.51;88.81
77017;BME280;65949;53.132;17.930;2023-12-29T01:35:20;100441.16;;;4.49;88.92
77017;BME280;65949;53.132;17.930;2023-12-29T01:37:47;100436.73;;;4.47;89.09
77017;BME280;65949;53.132;17.930;2023-12-29T01:40:13;100431.12;;;4.46;88.88
77017;BME280;65949;53.132;17.930;2023-12-29T01:42:40;100432.21;;;4.44;88.83
77017;BME280;65949;53.132;17.930;2023-12-29T01:45:20;100433.25;;;4.41;89.06
77017;BME280;65949;53.132;17.930;2023-12-29T01:47:48;100432.45;;;4.38;89.02
77017;BME280;65949;53.132;17.930;2023-12-29T01:50:17;100432.00;;;4.35;89.36
77017;BME280;65949;53.132;17.930;2023-12-29T01:52:45;100427.30;;;4.33;89.10
77017;BME280;65949;53.132;17.930;2023-12-29T01:55:17;100418.09;;;4.30;89.16
77017;BME280;65949;53.132;17.930;2023-12-29T01:57:45;100414.23;;;4.29;89.29
77017;BME280;65949;53.132;17.930;2023-12-29T02:00:14;100410.71;;;4.26;89.53
77017;BME280;65949;53.132;17.930;2023-12-29T02:02:44;100405.71;;;4.24;89.45
77017;BME280;65949;53.132;17.930;2023-12-29T02:05:16;100412.63;;;4.26;89.77
77017;BME280;65949;53.132;17.930;2023-12-29T02:07:43;100407.67;;;4.26;89.81
77017;BME280;65949;53.132;17.930;2023-12-29T02:10:10;100399.65;;;4.26;89.63
77017;BME280;65949;53.132;17.930;2023-12-29T02:12:40;100396.68;;;4.25;89.67
77017;BME280;65949;53.132;17.930;2023-12-29T02:15:08;100389.05;;;4.23;89.82
77017;BME280;65949;53.132;17.930;2023-12-29T02:17:41;100385.41;;;4.22;89.82
77017;BME280;65949;53.132;17.930;2023-12-29T02:20:10;100383.35;;;4.22;90.04
77017;BME280;65949;53.132;17.930;2023-12-29T02:22:37;100383.02;;;4.21;89.92
77017;BME280;65949;53.132;17.930;2023-12-29T02:25:05;100382.59;;;4.20;89.90
77017;BME280;65949;53.132;17.930;2023-12-29T02:30:47;100379.05;;;4.20;90.24
77017;BME280;65949;53.132;17.930;2023-12-29T02:33:21;100374.63;;;4.20;90.13
77017;BME280;65949;53.132;17.930;2023-12-29T02:35:48;100370.83;;;4.21;90.08
77017;BME280;65949;53.132;17.930;2023-12-29T02:38:18;100366.93;;;4.21;90.40
77017;BME280;65949;53.132;17.930;2023-12-29T02:40:45;100363.70;;;4.22;90.31
77017;BME280;65949;53.132;17.930;2023-12-29T02:43:12;100360.18;;;4.22;90.28
77017;BME280;65949;53.132;17.930;2023-12-29T02:45:39;100356.24;;;4.23;90.35
77017;BME280;65949;53.132;17.930;2023-12-29T02:48:06;100357.55;;;4.23;90.38
77017;BME280;65949;53.132;17.930;2023-12-29T02:50:33;100351.75;;;4.25;90.39
77017;BME280;65949;53.132;17.930;2023-12-29T02:52:59;100346.91;;;4.27;90.44
77017;BME280;65949;53.132;17.930;2023-12-29T02:55:26;100340.91;;;4.27;90.18
77017;BME280;65949;53.132;17.930;2023-12-29T02:57:52;100340.63;;;4.27;90.27
77017;BME280;65949;53.132;17.930;2023-12-29T03:00:19;100336.04;;;4.28;90.42
77017;BME280;65949;53.132;17.930;2023-12-29T03:02:46;100327.34;;;4.29;90.50
77017;BME280;65949;53.132;17.930;2023-12-29T03:05:14;100326.23;;;4.29;90.53
77017;BME280;65949;53.132;17.930;2023-12-29T03:07:41;100327.11;;;4.29;90.40
77017;BME280;65949;53.132;17.930;2023-12-29T03:10:08;100328.02;;;4.29;90.52
77017;BME280;65949;53.132;17.930;2023-12-29T03:12:35;100325.35;;;4.29;90.69
77017;BME280;65949;53.132;17.930;2023-12-29T03:15:02;100320.60;;;4.31;90.85
77017;BME280;65949;53.132;17.930;2023-12-29T03:17:29;100318.76;;;4.33;90.72
77017;BME280;65949;53.132;17.930;2023-12-29T03:19:55;100316.95;;;4.35;91.00
77017;BME280;65949;53.132;17.930;2023-12-29T03:22:22;100319.84;;;4.38;90.83
77017;BME280;65949;53.132;17.930;2023-12-29T03:24:49;100318.14;;;4.40;90.82
77017;BME280;65949;53.132;17.930;2023-12-29T03:27:15;100312.67;;;4.42;90.65
77017;BME280;65949;53.132;17.930;2023-12-29T03:29:42;100314.48;;;4.44;90.94
77017;BME280;65949;53.132;17.930;2023-12-29T03:32:09;100312.59;;;4.48;90.87
77017;BME280;65949;53.132;17.930;2023-12-29T03:34:35;100312.18;;;4.51;90.65
77017;BME280;65949;53.132;17.930;2023-12-29T03:37:02;100309.77;;;4.53;90.77
77017;BME280;65949;53.132;17.930;2023-12-29T03:39:29;100315.59;;;4.57;90.64
77017;BME280;65949;53.132;17.930;2023-12-29T03:41:56;100311.95;;;4.60;90.60
77017;BME280;65949;53.132;17.930;2023-12-29T03:44:23;100313.27;;;4.61;90.55
77017;BME280;65949;53.132;17.930;2023-12-29T03:46:50;100313.05;;;4.63;90.74
77017;BME280;65949;53.132;17.930;2023-12-29T03:49:17;100306.52;;;4.66;90.63
77017;BME280;65949;53.132;17.930;2023-12-29T03:51:45;100301.44;;;4.69;90.51
77017;BME280;65949;53.132;17.930;2023-12-29T03:54:12;100294.52;;;4.74;90.43
77017;BME280;65949;53.132;17.930;2023-12-29T03:56:39;100293.73;;;4.75;90.11
77017;BME280;65949;53.132;17.930;2023-12-29T03:59:05;100285.32;;;4.74;90.06
77017;BME280;65949;53.132;17.930;2023-12-29T04:01:33;100286.38;;;4.72;90.04
77017;BME280;65949;53.132;17.930;2023-12-29T04:04:00;100290.52;;;4.71;90.08
77017;BME280;65949;53.132;17.930;2023-12-29T04:06:26;100291.04;;;4.71;90.27
77017;BME280;65949;53.132;17.930;2023-12-29T04:08:53;100293.79;;;4.76;90.07
77017;BME280;65949;53.132;17.930;2023-12-29T04:11:20;100284.18;;;4.78;90.01
77017;BME280;65949;53.132;17.930;2023-12-29T04:13:46;100276.14;;;4.78;89.88
77017;BME280;65949;53.132;17.930;2023-12-29T04:16:13;100268.73;;;4.80;89.77
77017;BME280;65949;53.132;17.930;2023-12-29T04:18:39;100266.36;;;4.79;89.81
77017;BME280;65949;53.132;17.930;2023-12-29T04:21:07;100261.58;;;4.80;89.65
77017;BME280;65949;53.132;17.930;2023-12-29T04:23:35;100255.98;;;4.80;89.71
77017;BME280;65949;53.132;17.930;2023-12-29T04:26:02;100263.73;;;4.80;89.64
77017;BME280;65949;53.132;17.930;2023-12-29T04:28:28;100256.98;;;4.80;89.84
77017;BME280;65949;53.132;17.930;2023-12-29T04:30:56;100253.34;;;4.81;89.63
77017;BME280;65949;53.132;17.930;2023-12-29T04:33:22;100255.63;;;4.82;89.71
77017;BME280;65949;53.132;17.930;2023-12-29T04:35:51;100247.83;;;4.84;89.61
77017;BME280;65949;53.132;17.930;2023-12-29T04:38:18;100248.85;;;4.88;89.49
77017;BME280;65949;53.132;17.930;2023-12-29T04:40:46;100249.60;;;4.94;89.46
77017;BME280;65949;53.132;17.930;2023-12-29T04:43:16;100242.25;;;4.98;89.39
77017;BME280;65949;53.132;17.930;2023-12-29T04:45:42;100234.61;;;5.01;89.31
77017;BME280;65949;53.132;17.930;2023-12-29T04:48:09;100228.91;;;5.04;89.21
77017;BME280;65949;53.132;17.930;2023-12-29T04:50:36;100225.99;;;5.05;89.06
77017;BME280;65949;53.132;17.930;2023-12-29T04:53:02;100223.14;;;5.05;88.96
77017;BME280;65949;53.132;17.930;2023-12-29T04:55:29;100216.54;;;5.05;88.76
77017;BME280;65949;53.132;17.930;2023-12-29T04:57:55;100217.98;;;5.05;88.76
77017;BME280;65949;53.132;17.930;2023-12-29T05:00:22;100213.51;;;5.03;88.86
77017;BME280;65949;53.132;17.930;2023-12-29T05:02:49;100209.52;;;5.03;88.71
77017;BME280;65949;53.132;17.930;2023-12-29T05:05:15;100207.66;;;5.04;88.79
77017;BME280;65949;53.132;17.930;2023-12-29T05:07:42;100203.77;;;5.05;88.73
77017;BME280;65949;53.132;17.930;2023-12-29T05:10:08;100205.10;;;5.05;88.72
77017;BME280;65949;53.132;17.930;2023-12-29T05:12:35;100209.55;;;5.05;88.55
77017;BME280;65949;53.132;17.930;2023-12-29T05:15:02;100210.94;;;5.07;88.55
77017;BME280;65949;53.132;17.930;2023-12-29T05:17:29;100209.06;;;5.09;88.56
77017;BME280;65949;53.132;17.930;2023-12-29T05:19:55;100198.42;;;5.11;88.20
77017;BME280;65949;53.132;17.930;2023-12-29T05:22:22;100199.25;;;5.14;88.28
77017;BME280;65949;53.132;17.930;2023-12-29T05:24:48;100194.55;;;5.14;88.19
77017;BME280;65949;53.132;17.930;2023-12-29T05:27:15;100195.41;;;5.13;88.22
77017;BME280;65949;53.132;17.930;2023-12-29T05:29:42;100189.91;;;5.14;88.08
77017;BME280;65949;53.132;17.930;2023-12-29T05:32:08;100191.67;;;5.15;88.06
77017;BME280;65949;53.132;17.930;2023-12-29T05:34:35;100189.66;;;5.14;88.00
77017;BME280;65949;53.132;17.930;2023-12-29T05:37:01;100200.04;;;5.17;87.94
77017;BME280;65949;53.132;17.930;2023-12-29T05:39:28;100193.85;;;5.18;87.79
77017;BME280;65949;53.132;17.930;2023-12-29T05:41:55;100184.14;;;5.18;87.63
77017;BME280;65949;53.132;17.930;2023-12-29T05:44:22;100179.40;;;5.21;87.60
77017;BME280;65949;53.132;17.930;2023-12-29T05:46:49;100176.02;;;5.19;87.53
77017;BME280;65949;53.132;17.930;2023-12-29T05:49:16;100170.39;;;5.17;87.66
77017;BME280;65949;53.132;17.930;2023-12-29T05:51:44;100170.90;;;5.17;87.71
77017;BME280;65949;53.132;17.930;2023-12-29T05:54:10;100163.04;;;5.14;87.46
77017;BME280;65949;53.132;17.930;2023-12-29T05:56:37;100164.60;;;5.16;87.65
77017;BME280;65949;53.132;17.930;2023-12-29T05:59:04;100163.84;;;5.18;87.57
77017;BME280;65949;53.132;17.930;2023-12-29T06:01:30;100156.82;;;5.19;87.44
77017;BME280;65949;53.132;17.930;2023-12-29T06:03:57;100155.79;;;5.21;87.45
77017;BME280;65949;53.132;17.930;2023-12-29T06:06:23;100154.59;;;5.21;87.29
77017;BME280;65949;53.132;17.930;2023-12-29T06:08:50;100153.50;;;5.20;87.36
77017;BME280;65949;53.132;17.930;2023-12-29T06:11:17;100155.97;;;5.17;87.39
77017;BME280;65949;53.132;17.930;2023-12-29T06:13:43;100162.12;;;5.17;87.36
77017;BME280;65949;53.132;17.930;2023-12-29T06:16:17;100167.45;;;5.18;87.29
77017;BME280;65949;53.132;17.930;2023-12-29T06:18:43;100171.11;;;5.17;87.29
77017;BME280;65949;53.132;17.930;2023-12-29T06:21:10;100169.61;;;5.17;87.22
77017;BME280;65949;53.132;17.930;2023-12-29T06:23:37;100168.48;;;5.18;87.23
77017;BME280;65949;53.132;17.930;2023-12-29T06:26:03;100171.68;;;5.19;87.15
77017;BME280;65949;53.132;17.930;2023-12-29T06:28:30;100176.31;;;5.22;87.03
77017;BME280;65949;53.132;17.930;2023-12-29T06:30:56;100180.18;;;5.26;87.18
77017;BME280;65949;53.132;17.930;2023-12-29T06:33:23;100174.90;;;5.31;87.07
77017;BME280;65949;53.132;17.930;2023-12-29T06:35:49;100166.20;;;5.35;87.06
77017;BME280;65949;53.132;17.930;2023-12-29T06:38:16;100161.36;;;5.38;87.02
77017;BME280;65949;53.132;17.930;2023-12-29T06:40:42;100160.29;;;5.42;86.69
77017;BME280;65949;53.132;17.930;2023-12-29T06:43:09;100151.80;;;5.47;86.68
77017;BME280;65949;53.132;17.930;2023-12-29T06:45:36;100146.64;;;5.50;86.53
77017;BME280;65949;53.132;17.930;2023-12-29T06:48:03;100145.80;;;5.52;86.72
77017;BME280;65949;53.132;17.930;2023-12-29T06:50:29;100142.07;;;5.54;86.36
77017;BME280;65949;53.132;17.930;2023-12-29T06:52:56;100141.33;;;5.57;86.40
77017;BME280;65949;53.132;17.930;2023-12-29T06:55:24;100138.64;;;5.60;86.26
77017;BME280;65949;53.132;17.930;2023-12-29T06:57:51;100140.57;;;5.60;86.16
77017;BME280;65949;53.132;17.930;2023-12-29T07:00:18;100144.23;;;5.63;86.00
77017;BME280;65949;53.132;17.930;2023-12-29T07:02:45;100134.92;;;5.66;86.05
77017;BME280;65949;53.132;17.930;2023-12-29T07:05:11;100137.88;;;5.67;85.90
77017;BME280;65949;53.132;17.930;2023-12-29T07:07:38;100139.29;;;5.70;86.01
77017;BME280;65949;53.132;17.930;2023-12-29T07:10:05;100142.42;;;5.72;85.89
77017;BME280;65949;53.132;17.930;2023-12-29T07:12:32;100142.63;;;5.75;85.76
77017;BME280;65949;53.132;17.930;2023-12-29T07:14:59;100146.31;;;5.78;85.76
77017;BME280;65949;53.132;17.930;2023-12-29T07:17:25;100155.05;;;5.81;85.44
77017;BME280;65949;53.132;17.930;2023-12-29T07:19:52;100155.87;;;5.82;85.49
77017;BME280;65949;53.132;17.930;2023-12-29T07:22:18;100152.98;;;5.83;85.76
77017;BME280;65949;53.132;17.930;2023-12-29T07:24:45;100154.41;;;5.84;85.75
77017;BME280;65949;53.132;17.930;2023-12-29T07:27:12;100154.23;;;5.86;85.63
77017;BME280;65949;53.132;17.930;2023-12-29T07:29:38;100154.05;;;5.87;85.49
77017;BME280;65949;53.132;17.930;2023-12-29T07:32:05;100150.35;;;5.89;85.50
77017;BME280;65949;53.132;17.930;2023-12-29T07:34:32;100151.54;;;5.91;85.51
77017;BME280;65949;53.132;17.930;2023-12-29T07:36:59;100146.11;;;5.92;85.42
77017;BME280;65949;53.132;17.930;2023-12-29T07:39:25;100146.46;;;5.94;85.23
77017;BME280;65949;53.132;17.930;2023-12-29T07:41:52;100150.45;;;5.95;85.24
77017;BME280;65949;53.132;17.930;2023-12-29T07:44:19;100146.80;;;5.96;85.17
77017;BME280;65949;53.132;17.930;2023-12-29T07:46:46;100144.13;;;5.98;85.01
77017;BME280;65949;53.132;17.930;2023-12-29T07:49:13;100150.22;;;6.00;85.26
77017;BME280;65949;53.132;17.930;2023-12-29T07:51:40;100144.73;;;6.03;84.88
77017;BME280;65949;53.132;17.930;2023-12-29T07:54:08;100145.43;;;6.07;84.98
77017;BME280;65949;53.132;17.930;2023-12-29T07:56:35;100147.11;;;6.12;84.91
77017;BME280;65949;53.132;17.930;2023-12-29T07:59:03;100140.96;;;6.16;84.60
77017;BME280;65949;53.132;17.930;2023-12-29T08:01:30;100143.79;;;6.21;84.45
77017;BME280;65949;53.132;17.930;2023-12-29T08:03:57;100142.56;;;6.25;84.25
77017;BME280;65949;53.132;17.930;2023-12-29T08:06:23;100151.66;;;6.32;84.32
77017;BME280;65949;53.132;17.930;2023-12-29T08:08:50;100151.49;;;6.37;84.31
77017;BME280;65949;53.132;17.930;2023-12-29T08:11:17;100147.83;;;6.39;84.14
77017;BME280;65949;53.132;17.930;2023-12-29T08:13:46;100150.83;;;6.42;84.21
77017;BME280;65949;53.132;17.930;2023-12-29T08:16:13;100155.11;;;6.44;84.19
77017;BME280;65949;53.132;17.930;2023-12-29T08:18:39;100149.55;;;6.50;83.74
77017;BME280;65949;53.132;17.930;2023-12-29T08:21:06;100152.26;;;6.58;83.45
77017;BME280;65949;53.132;17.930;2023-12-29T08:23:32;100146.22;;;6.67;83.68
77017;BME280;65949;53.132;17.930;2023-12-29T08:25:59;100144.09;;;6.75;83.13
77017;BME280;65949;53.132;17.930;2023-12-29T08:28:26;100138.18;;;6.81;83.46
77017;BME280;65949;53.132;17.930;2023-12-29T08:30:53;100148.64;;;6.88;83.02
77017;BME280;65949;53.132;17.930;2023-12-29T08:33:19;100152.17;;;6.94;83.15
77017;BME280;65949;53.132;17.930;2023-12-29T08:35:46;100152.65;;;6.99;82.92
77017;BME280;65949;53.132;17.930;2023-12-29T08:38:13;100151.70;;;7.01;82.70
77017;BME280;65949;53.132;17.930;2023-12-29T08:40:40;100146.52;;;7.02;82.84
77017;BME280;65949;53.132;17.930;2023-12-29T08:43:08;100146.27;;;7.03;82.20
77017;BME280;65949;53.132;17.930;2023-12-29T08:45:35;100147.91;;;7.05;82.39
77017;BME280;65949;53.132;17.930;2023-12-29T08:48:02;100149.89;;;7.06;82.85
77017;BME280;65949;53.132;17.930;2023-12-29T08:50:29;100150.67;;;7.06;82.51
77017;BME280;65949;53.132;17.930;2023-12-29T08:52:56;100151.98;;;7.07;82.51
77017;BME280;65949;53.132;17.930;2023-12-29T08:55:23;100150.61;;;7.10;82.07
77017;BME280;65949;53.132;17.930;2023-12-29T08:57:49;100149.65;;;7.12;82.05
77017;BME280;65949;53.132;17.930;2023-12-29T09:00:16;100153.58;;;7.16;82.43
77017;BME280;65949;53.132;17.930;2023-12-29T09:02:43;100155.61;;;7.20;82.19
77017;BME280;65949;53.132;17.930;2023-12-29T09:05:10;100151.63;;;7.25;82.19
77017;BME280;65949;53.132;17.930;2023-12-29T09:07:37;100148.13;;;7.28;81.85
77017;BME280;65949;53.132;17.930;2023-12-29T09:10:05;100148.20;;;7.30;82.12
77017;BME280;65949;53.132;17.930;2023-12-29T09:12:34;100151.05;;;7.31;82.19
77017;BME280;65949;53.132;17.930;2023-12-29T09:15:01;100150.96;;;7.31;82.60
77017;BME280;65949;53.132;17.930;2023-12-29T09:17:28;100144.85;;;7.33;82.64
77017;BME280;65949;53.132;17.930;2023-12-29T09:19:55;100143.02;;;7.36;82.48
77017;BME280;65949;53.132;17.930;2023-12-29T09:22:21;100140.98;;;7.40;82.63
77017;BME280;65949;53.132;17.930;2023-12-29T09:24:48;100133.61;;;7.44;82.41
77017;BME280;65949;53.132;17.930;2023-12-29T09:27:14;100128.86;;;7.46;82.67
77017;BME280;65949;53.132;17.930;2023-12-29T09:29:41;100129.33;;;7.51;82.82
77017;BME280;65949;53.132;17.930;2023-12-29T09:32:08;100121.83;;;7.52;82.02
77017;BME280;65949;53.132;17.930;2023-12-29T09:34:34;100119.05;;;7.54;82.14
77017;BME280;65949;53.132;17.930;2023-12-29T09:37:01;100114.06;;;7.58;82.33
77017;BME280;65949;53.132;17.930;2023-12-29T09:39:27;100107.06;;;7.60;81.79
77017;BME280;65949;53.132;17.930;2023-12-29T09:41:59;100103.58;;;7.63;81.33
77017;BME280;65949;53.132;17.930;2023-12-29T09:44:31;100103.02;;;7.66;81.16
77017;BME280;65949;53.132;17.930;2023-12-29T09:47:01;100105.25;;;7.69;80.12
77017;BME280;65949;53.132;17.930;2023-12-29T09:49:38;100114.05;;;7.74;80.46
77017;BME280;65949;53.132;17.930;2023-12-29T09:52:11;100117.69;;;7.80;80.21
77017;BME280;65949;53.132;17.930;2023-12-29T09:54:39;100115.49;;;7.85;80.06
77017;BME280;65949;53.132;17.930;2023-12-29T09:57:08;100118.60;;;7.91;79.46
77017;BME280;65949;53.132;17.930;2023-12-29T09:59:35;100114.25;;;7.98;79.00
77017;BME280;65949;53.132;17.930;2023-12-29T10:02:05;100107.77;;;8.04;79.57
77017;BME280;65949;53.132;17.930;2023-12-29T10:04:32;100103.02;;;8.10;78.30
77017;BME280;65949;53.132;17.930;2023-12-29T10:07:02;100107.85;;;8.16;78.84
77017;BME280;65949;53.132;17.930;2023-12-29T10:09:37;100107.33;;;8.21;78.45
77017;BME280;65949;53.132;17.930;2023-12-29T10:12:06;100099.14;;;8.22;77.92
77017;BME280;65949;53.132;17.930;2023-12-29T10:17:36;100102.94;;;8.23;78.74
77017;BME280;65949;53.132;17.930;2023-12-29T10:20:08;100103.41;;;8.23;78.54
77017;BME280;65949;53.132;17.930;2023-12-29T10:22:47;100103.21;;;8.25;78.26
77017;BME280;65949;53.132;17.930;2023-12-29T10:25:15;100103.33;;;8.25;77.99
77017;BME280;65949;53.132;17.930;2023-12-29T10:27:41;100115.05;;;8.24;77.88
77017;BME280;65949;53.132;17.930;2023-12-29T10:30:10;100111.55;;;8.23;77.84
77017;BME280;65949;53.132;17.930;2023-12-29T10:32:37;100106.47;;;8.23;78.09
77017;BME280;65949;53.132;17.930;2023-12-29T10:35:08;100106.58;;;8.23;78.26
77017;BME280;65949;53.132;17.930;2023-12-29T10:37:38;100103.90;;;8.26;77.79
77017;BME280;65949;53.132;17.930;2023-12-29T10:40:06;100104.08;;;8.31;77.49
77017;BME280;65949;53.132;17.930;2023-12-29T10:42:33;100102.30;;;8.37;77.41
77017;BME280;65949;53.132;17.930;2023-12-29T10:45:10;100108.82;;;8.48;77.57
77017;BME280;65949;53.132;17.930;2023-12-29T10:47:36;100106.48;;;8.60;77.52
77017;BME280;65949;53.132;17.930;2023-12-29T10:50:05;100101.65;;;8.69;77.43
77017;BME280;65949;53.132;17.930;2023-12-29T10:52:32;100105.34;;;8.79;77.11
77017;BME280;65949;53.132;17.930;2023-12-29T10:55:09;100104.76;;;8.90;76.43
77017;BME280;65949;53.132;17.930;2023-12-29T10:57:38;100106.25;;;8.97;76.90
77017;BME280;65949;53.132;17.930;2023-12-29T11:00:06;100107.10;;;9.02;76.12
77017;BME280;65949;53.132;17.930;2023-12-29T11:02:35;100099.73;;;9.08;75.81
77017;BME280;65949;53.132;17.930;2023-12-29T11:05:06;100100.17;;;9.12;75.47
77017;BME280;65949;53.132;17.930;2023-12-29T11:07:41;100096.28;;;9.19;75.82
77017;BME280;65949;53.132;17.930;2023-12-29T11:10:08;100092.98;;;9.35;75.22
77017;BME280;65949;53.132;17.930;2023-12-29T11:12:36;100095.63;;;9.49;75.16
77017;BME280;65949;53.132;17.930;2023-12-29T11:15:06;100096.00;;;9.55;74.41
77017;BME280;65949;53.132;17.930;2023-12-29T11:17:34;100092.05;;;9.57;74.74
77017;BME280;65949;53.132;17.930;2023-12-29T11:20:03;100092.30;;;9.58;74.80
77017;BME280;65949;53.132;17.930;2023-12-29T11:22:31;100092.41;;;9.56;73.13
77017;BME280;65949;53.132;17.930;2023-12-29T11:24:58;100087.98;;;9.54;73.85
77017;BME280;65949;53.132;17.930;2023-12-29T11:27:28;100086.98;;;9.49;73.70
77017;BME280;65949;53.132;17.930;2023-12-29T11:29:58;100084.13;;;9.47;73.79
77017;BME280;65949;53.132;17.930;2023-12-29T11:32:53;100079.48;;;9.43;73.90
77017;BME280;65949;53.132;17.930;2023-12-29T11:35:47;100084.21;;;9.41;74.10
77017;BME280;65949;53.132;17.930;2023-12-29T11:38:32;100086.92;;;9.37;73.99
77017;BME280;65949;53.132;17.930;2023-12-29T11:43:26;100088.13;;;9.40;73.81
77017;BME280;65949;53.132;17.930;2023-12-29T11:45:53;100088.59;;;9.48;73.11
77017;BME280;65949;53.132;17.930;2023-12-29T11:48:52;100083.46;;;9.58;73.00
77017;BME280;65949;53.132;17.930;2023-12-29T11:53:56;100085.23;;;9.64;72.91
77017;BME280;65949;53.132;17.930;2023-12-29T11:56:23;100078.16;;;9.63;72.50
77017;BME280;65949;53.132;17.930;2023-12-29T11:58:50;100080.09;;;9.62;73.46
77017;BME280;65949;53.132;17.930;2023-12-29T12:01:33;100077.84;;;9.57;73.24
77017;BME280;65949;53.132;17.930;2023-12-29T12:04:01;100083.34;;;9.53;72.69
77017;BME280;65949;53.132;17.930;2023-12-29T12:06:46;100088.09;;;9.55;72.56
77017;BME280;65949;53.132;17.930;2023-12-29T12:09:22;100095.43;;;9.57;73.02
77017;BME280;65949;53.132;17.930;2023-12-29T12:11:51;100097.40;;;9.53;72.32
77017;BME280;65949;53.132;17.930;2023-12-29T12:14:47;100087.52;;;9.49;72.50
77017;BME280;65949;53.132;17.930;2023-12-29T12:17:33;100081.89;;;9.45;72.78
77017;BME280;65949;53.132;17.930;2023-12-29T12:22:31;100079.01;;;9.34;73.36
77017;BME280;65949;53.132;17.930;2023-12-29T12:24:59;100079.27;;;9.30;73.14
77017;BME280;65949;53.132;17.930;2023-12-29T12:27:27;100084.71;;;9.28;73.58
77017;BME280;65949;53.132;17.930;2023-12-29T12:29:58;100091.62;;;9.25;73.59
77017;BME280;65949;53.132;17.930;2023-12-29T12:32:26;100099.63;;;9.22;73.76
77017;BME280;65949;53.132;17.930;2023-12-29T12:34:54;100099.52;;;9.20;73.83
77017;BME280;65949;53.132;17.930;2023-12-29T12:37:22;100094.94;;;9.18;74.15
77017;BME280;65949;53.132;17.930;2023-12-29T12:39:50;100099.44;;;9.16;73.76
77017;BME280;65949;53.132;17.930;2023-12-29T12:42:17;100092.23;;;9.16;73.37
77017;BME280;65949;53.132;17.930;2023-12-29T12:47:27;100085.98;;;9.17;73.82
77017;BME280;65949;53.132;17.930;2023-12-29T12:49:54;100095.39;;;9.17;73.59
77017;BME280;65949;53.132;17.930;2023-12-29T12:52:21;100093.58;;;9.18;73.69
77017;BME280;65949;53.132;17.930;2023-12-29T12:54:48;100093.63;;;9.17;73.00
77017;BME280;65949;53.132;17.930;2023-12-29T12:57:19;100093.69;;;9.20;72.57
77017;BME280;65949;53.132;17.930;2023-12-29T12:59:47;100089.08;;;9.25;72.13
77017;BME280;65949;53.132;17.930;2023-12-29T13:02:14;100082.41;;;9.26;73.15
77017;BME280;65949;53.132;17.930;2023-12-29T13:04:41;100088.30;;;9.26;72.71
77017;BME280;65949;53.132;17.930;2023-12-29T13:07:09;100089.64;;;9.27;72.74
77017;BME280;65949;53.132;17.930;2023-12-29T13:09:36;100097.86;;;9.25;72.52
77017;BME280;65949;53.132;17.930;2023-12-29T13:12:13;100095.42;;;9.25;72.58